South Milwaukee, WI (53172)

7:20 PM CST on January 31, 2015 (GMT -0600)
South Milwaukee | Change Station
CLOSE
Current Station
Personal Weather Station
Location: South Milwaukee, WI
Elevation: 687 ft
Nearby Weather Stations
Active Advisory: Winter Storm Warning

Elev 687 ft 42.91 °N, 87.88 °W | Updated 1 second ago

Overcast
Overcast
30.9 °F
Feels Like 31 °F
N
1.0
Wind Variable Wind from NE
Gusts 4.0 mph

Today
High -- | Low -- °F
--% Chance of Precip.
Yesterday
High -- | Low -- °F
Precip. -- in
7:07 AM 5:02 PM
Waxing Gibbous, 92% visible
Pressure 30.22 in
Visibility 10.0 miles
Clouds Overcast 2500 ft
Windchill 31 °F
Dew Point 26 °F
Humidity 81%
Rainfall 0.00 in
Snow Depth Not available.
UV 0 out of 12
Pollen .10 out of 12
Air Quality Not available.
Flu Activity Not available.
METAR KMKE 010052Z 05008KT 10SM OVC025 00/M06 A3019 RMK AO2 SLP232 T00001056

More Conditions Fewer Conditions

Pressure 30.22 in
Visibility 10.0 miles
Clouds Overcast 2500 ft
Windchill 31 °F
Dew Point 26 °F
Humidity 81%
Rainfall 0.00 in
Snow Depth Not available.
UV 0 out of 12
Pollen .10 out of 12
Air Quality Not available.
Flu Activity Not available.
METAR KMKE 010052Z 05008KT 10SM OVC025 00/M06 A3019 RMK AO2 SLP232 T00001056

More Conditions Fewer Conditions

10-Day Weather Forecast

Almanac

Astronomy

Jan. 31, 2015 Rise Set
Actual Time
Civil Twilight
Nautical Twilight
Astronomical Twilight
Moon
Length of Visible Light
Length of Day
Tomorrow will be .
, % of the Moon is Illuminated

Today's Extremes

State Highs State Lows

Community

WunderPhotos

Upload Photos

1,792,273 photos uploaded!

WunderBlogs® & News

Nearby

Air Quality

  Air Quality AQ Index Pollutant
Not available.

Snow Depth

Station Depth Elevation

Earthquake Activity

City Distance Mag. Time & Date
Minimum magnitude displayed is 2.5.

Coastal Water Temperatures

Place Temperature

Nearby Weather Stations